Time;durP1;ratioP1;P1;durP2;ratioP2;P2;SDS_P1;SDS_P2;PMS_P1;PMS_P2;Temp;Humidity;BMP_temperature;BMP_pressure;BME280_temperature;BME280_humidity;BME280_pressure;Samples;Min_cycle;Max_cycle;Signal;HPM_P1;HPM_P2
2022/01/05 00:00:52;;;;;;;19.87;7.83;;;;;;;8.17;72.04;99201.47;125035;1102;103935;-80
2022/01/05 00:03:24;;;;;;;17.30;7.47;;;;;;;8.17;72.38;99197.98;125114;1103;104322;-79
2022/01/05 00:05:54;;;;;;;19.13;7.93;;;;;;;8.15;71.58;99215.33;125043;1106;104407;-79
2022/01/05 00:08:25;;;;;;;20.33;8.33;;;;;;;8.10;72.24;99202.16;125060;1102;104011;-80
2022/01/05 00:10:55;;;;;;;17.93;8.27;;;;;;;8.07;71.92;99210.82;125088;1105;104054;-80
2022/01/05 00:13:27;;;;;;;19.53;8.30;;;;;;;8.06;71.97;99210.78;125041;1105;104018;-80
2022/01/05 00:15:57;;;;;;;16.40;8.10;;;;;;;8.04;72.10;99213.36;125019;1102;103948;-80
2022/01/05 00:18:26;;;;;;;20.17;7.80;;;;;;;8.03;72.23;99222.02;124989;1105;105541;-80
2022/01/05 00:20:57;;;;;;;19.00;8.07;;;;;;;8.03;72.40;99226.38;124956;1102;104024;-80
2022/01/05 00:23:27;;;;;;;16.37;7.97;;;;;;;8.03;72.32;99218.54;125007;1102;103925;-80
2022/01/05 00:25:59;;;;;;;19.87;8.90;;;;;;;8.02;72.32;99225.47;125039;1105;102572;-80
2022/01/05 00:28:29;;;;;;;16.30;7.70;;;;;;;8.04;71.69;99215.06;125049;1105;103932;-80
2022/01/05 00:30:59;;;;;;;19.27;8.63;;;;;;;8.04;72.15;99215.06;125014;1105;103992;-80
2022/01/05 00:33:29;;;;;;;17.67;8.00;;;;;;;8.02;72.34;99215.02;125107;1105;103932;-80
2022/01/05 00:36:00;;;;;;;18.90;8.00;;;;;;;8.00;72.00;99214.11;125007;1105;103989;-79
2022/01/05 00:38:31;;;;;;;18.40;7.80;;;;;;;8.00;71.80;99221.08;125052;1105;104111;-81
2022/01/05 00:41:01;;;;;;;19.80;8.67;;;;;;;7.99;72.11;99214.95;125047;1105;104049;-80
2022/01/05 00:43:31;;;;;;;20.50;8.97;;;;;;;8.00;72.48;99213.23;125092;1105;103890;-80
2022/01/05 00:46:01;;;;;;;20.90;8.47;;;;;;;7.99;71.93;99224.52;125080;1105;104075;-80
2022/01/05 00:48:36;;;;;;;18.07;8.57;;;;;;;7.98;71.93;99218.42;125160;1105;103970;-80
2022/01/05 00:51:08;;;;;;;21.87;8.63;;;;;;;7.97;72.31;99214.03;125024;1105;104002;-80
2022/01/05 00:53:38;;;;;;;20.07;8.67;;;;;;;7.96;72.21;99208.77;125122;1105;103929;-80
2022/01/05 00:56:08;;;;;;;18.60;8.03;;;;;;;7.96;72.56;99208.77;125043;1105;104005;-80
2022/01/05 00:58:38;;;;;;;18.80;7.67;;;;;;;7.97;72.46;99205.32;124987;1105;103990;-80
2022/01/05 01:01:07;;;;;;;19.67;8.30;;;;;;;7.96;72.27;99207.03;125262;1102;103944;-79
2022/01/05 01:03:39;;;;;;;18.60;8.50;;;;;;;7.95;72.52;99206.98;125229;1102;104032;-79
2022/01/05 01:06:09;;;;;;;19.80;8.30;;;;;;;7.95;72.21;99209.60;125211;1102;104067;-79
2022/01/05 01:08:39;;;;;;;18.90;8.00;;;;;;;7.95;72.27;99212.22;125219;1102;104053;-79
2022/01/05 01:11:09;;;;;;;20.17;8.43;;;;;;;7.94;72.62;99206.12;125196;1102;103933;-80
2022/01/05 01:13:39;;;;;;;19.27;8.57;;;;;;;7.95;72.19;99204.38;125340;1102;103977;-79
2022/01/05 01:16:08;;;;;;;19.10;8.55;;;;;;;7.96;72.63;99198.31;125249;1102;104057;-80
2022/01/05 01:18:38;;;;;;;19.33;8.97;;;;;;;7.98;72.46;99199.23;125378;1102;104083;-80
2022/01/05 01:21:08;;;;;;;16.63;7.70;;;;;;;8.00;72.47;99193.21;125254;1102;104050;-80
2022/01/05 01:23:38;;;;;;;18.20;7.97;;;;;;;8.03;72.15;99187.19;125119;1102;103980;-80
2022/01/05 01:26:08;;;;;;;17.87;7.83;;;;;;;8.05;72.36;99182.88;125295;1102;103928;-80
2022/01/05 01:28:37;;;;;;;19.07;8.30;;;;;;;8.07;72.64;99178.56;125309;1102;104063;-79
2022/01/05 01:31:07;;;;;;;19.77;7.80;;;;;;;8.08;72.36;99169.89;125058;1102;105271;-79
2022/01/05 01:33:37;;;;;;;19.40;7.93;;;;;;;8.09;72.62;99167.31;125269;1102;103941;-79
2022/01/05 01:36:07;;;;;;;15.87;7.57;;;;;;;8.10;72.29;99170.80;125151;1102;104136;-79
2022/01/05 01:38:37;;;;;;;16.93;8.23;;;;;;;8.13;72.65;99177.84;125095;1102;103990;-80
2022/01/05 01:41:07;;;;;;;18.17;7.67;;;;;;;8.16;72.31;99177.91;125033;1102;104062;-78
2022/01/05 01:43:37;;;;;;;17.53;8.03;;;;;;;8.18;72.68;99189.28;125242;1102;104159;-78
2022/01/05 01:46:08;;;;;;;18.73;8.23;;;;;;;8.18;72.39;99158.83;125076;1102;104178;-78
2022/01/05 01:48:38;;;;;;;17.03;7.70;;;;;;;8.21;72.67;99160.61;125177;1102;103939;-80
2022/01/05 01:51:11;;;;;;;17.83;8.30;;;;;;;8.21;72.16;99164.13;125031;1106;104089;-79
2022/01/05 01:53:41;;;;;;;18.70;8.00;;;;;;;8.22;72.67;99160.64;125039;1106;103935;-79
2022/01/05 01:56:12;;;;;;;18.17;8.23;;;;;;;8.23;72.67;99161.55;125081;1105;103964;-79
2022/01/05 01:58:44;;;;;;;16.20;7.73;;;;;;;8.22;71.97;99150.19;125035;1105;103935;-80
2022/01/05 02:01:15;;;;;;;17.10;7.53;;;;;;;8.23;72.63;99151.97;125057;1105;104085;-80
2022/01/05 02:03:48;;;;;;;18.40;8.30;;;;;;;8.24;72.48;99158.97;125055;1105;103977;-80
2022/01/05 02:06:18;;;;;;;17.40;7.97;;;;;;;8.24;72.66;99151.13;125056;1105;103986;-80
2022/01/05 02:08:48;;;;;;;19.57;7.60;;;;;;;8.24;72.28;99148.52;125067;1105;104221;-79
2022/01/05 02:11:20;;;;;;;19.37;8.47;;;;;;;8.24;72.45;99151.13;125026;1105;104083;-80
2022/01/05 02:13:49;;;;;;;18.57;8.57;;;;;;;8.23;72.63;99157.20;125080;1105;103401;-79
2022/01/05 02:16:29;;;;;;;15.57;7.70;;;;;;;8.22;72.42;99158.03;125028;1106;103955;-80
2022/01/05 02:19:02;;;;;;;18.27;7.67;;;;;;;8.20;72.06;99154.51;125102;1105;103968;-81
2022/01/05 02:21:34;;;;;;;18.15;8.18;;;;;;;8.18;72.07;99161.44;125070;1105;104098;-80
2022/01/05 02:24:08;;;;;;;17.17;7.47;;;;;;;8.19;72.18;99162.31;125187;1102;104054;-79
2022/01/05 02:26:38;;;;;;;;;;;;;;;8.20;72.10;99166.70;125327;1102;103987;-79
2022/01/05 02:29:09;;;;;;;17.77;8.30;;;;;;;8.20;72.17;99177.16;125390;1102;103926;-79
2022/01/05 02:31:39;;;;;;;17.23;7.23;;;;;;;8.21;72.16;99178.90;125138;1103;103932;-80
2022/01/05 02:34:09;;;;;;;17.13;7.90;;;;;;;8.23;71.78;99172.88;125305;1102;119335;-80
2022/01/05 02:36:40;;;;;;;17.80;7.60;;;;;;;8.24;71.83;99172.04;125322;1102;101765;-81
2022/01/05 02:39:10;;;;;;;21.13;8.27;;;;;;;8.24;72.36;99161.59;125183;1102;104410;-81
2022/01/05 02:41:40;;;;;;;18.27;7.70;;;;;;;8.22;72.14;99168.48;125218;1102;103925;-80
2022/01/05 02:44:09;;;;;;;17.73;7.83;;;;;;;8.21;72.39;99169.35;125243;1102;103945;-79
2022/01/05 02:46:41;;;;;;;17.90;7.77;;;;;;;8.19;72.18;99171.02;125263;1102;104063;-79
2022/01/05 02:49:11;;;;;;;18.50;8.07;;;;;;;8.19;72.42;99170.15;125256;1102;104083;-80
2022/01/05 02:51:41;;;;;;;18.83;7.87;;;;;;;8.17;72.36;99177.95;125129;1102;103977;-80
2022/01/05 02:54:11;;;;;;;20.27;8.17;;;;;;;8.16;71.85;99170.08;125142;1102;104018;-80
2022/01/05 02:56:41;;;;;;;19.53;8.30;;;;;;;8.13;71.65;99170.00;125028;1102;103951;-78
2022/01/05 02:59:14;;;;;;;19.27;8.33;;;;;;;8.11;72.37;99167.35;125106;1102;104031;-80
2022/01/05 03:01:47;;;;;;;17.57;8.03;;;;;;;8.08;72.33;99162.05;125166;1102;104121;-80
2022/01/05 03:04:16;;;;;;;18.80;7.60;;;;;;;8.08;72.40;99162.05;125168;1102;104461;-79
2022/01/05 03:06:46;;;;;;;19.07;8.20;;;;;;;8.06;72.38;99155.92;125174;1102;103980;-80
2022/01/05 03:09:16;;;;;;;17.73;8.03;;;;;;;8.05;72.20;99164.59;125329;1102;103961;-78
2022/01/05 03:11:46;;;;;;;19.33;8.37;;;;;;;8.03;72.36;99166.30;125341;1102;103932;-80
2022/01/05 03:14:17;;;;;;;19.90;8.40;;;;;;;8.00;71.66;99158.38;125291;1102;103948;-79
2022/01/05 03:16:47;;;;;;;18.93;8.37;;;;;;;7.99;72.10;99159.22;125115;1102;103995;-79
2022/01/05 03:19:20;;;;;;;17.40;7.93;;;;;;;7.98;71.91;99168.79;125145;1102;104420;-79
2022/01/05 03:21:50;;;;;;;15.77;7.47;;;;;;;7.95;72.34;99167.81;125196;1102;103993;-79
2022/01/05 03:24:19;;;;;;;17.50;8.07;;;;;;;7.94;72.40;99163.45;125139;1102;103958;-79
2022/01/05 03:26:49;;;;;;;16.57;8.13;;;;;;;7.92;72.33;99164.28;125310;1102;103890;-79
2022/01/05 03:29:22;;;;;;;19.60;8.77;;;;;;;7.90;72.10;99152.92;125106;1105;103954;-79
2022/01/05 03:31:52;;;;;;;19.47;8.17;;;;;;;7.90;71.97;99159.89;125326;1102;104018;-80
2022/01/05 03:34:22;;;;;;;16.93;8.07;;;;;;;7.91;72.37;99149.45;125151;1102;103928;-79
2022/01/05 03:36:52;;;;;;;21.23;8.30;;;;;;;7.91;72.10;99151.19;125162;1105;104098;-78
2022/01/05 03:39:22;;;;;;;21.17;8.77;;;;;;;7.89;72.17;99143.31;125254;1102;104117;-78
2022/01/05 03:41:51;;;;;;;19.10;8.57;;;;;;;7.91;72.04;99144.22;125241;1101;104059;-79
2022/01/05 03:44:21;;;;;;;18.00;8.03;;;;;;;7.92;72.03;99139.91;125067;1102;103984;-79
2022/01/05 03:46:51;;;;;;;17.40;7.87;;;;;;;7.95;71.83;99152.14;125129;1102;103938;-79
2022/01/05 03:49:21;;;;;;;17.23;7.17;;;;;;;7.98;72.16;99149.60;125151;1102;104066;-80
2022/01/05 03:51:50;;;;;;;18.35;7.70;;;;;;;8.00;71.95;99154.03;125162;1102;103922;-80
2022/01/05 03:54:20;;;;;;;20.77;8.27;;;;;;;8.02;72.13;99156.67;125096;1102;103980;-80
2022/01/05 03:56:50;;;;;;;16.03;7.67;;;;;;;8.05;72.46;99151.53;125203;1102;104146;-80
2022/01/05 03:59:22;;;;;;;18.50;7.70;;;;;;;8.06;71.82;99154.17;125137;1102;103885;-81
2022/01/05 04:01:55;;;;;;;19.03;8.17;;;;;;;8.09;72.39;99148.16;125194;1102;102147;-81
2022/01/05 04:04:24;;;;;;;17.67;7.47;;;;;;;8.09;72.43;99154.25;125250;1102;104079;-81
2022/01/05 04:06:54;;;;;;;18.97;8.50;;;;;;;8.12;72.07;99150.84;125253;1102;104040;-81
2022/01/05 04:09:24;;;;;;;20.17;8.10;;;;;;;8.13;72.30;99146.48;125220;1102;103925;-80
2022/01/05 04:11:54;;;;;;;17.33;7.90;;;;;;;8.14;72.37;99143.91;125262;1102;103967;-81
2022/01/05 04:14:23;;;;;;;20.23;8.27;;;;;;;8.14;72.44;99133.45;125167;1102;104159;-80
2022/01/05 04:16:53;;;;;;;18.47;8.13;;;;;;;8.15;71.94;99139.56;125263;1102;103954;-81
2022/01/05 04:19:23;;;;;;;18.47;8.37;;;;;;;8.13;72.35;99142.13;125025;1103;103957;-81
2022/01/05 04:21:53;;;;;;;19.23;8.20;;;;;;;8.13;71.74;99156.94;125055;1102;103970;-81
2022/01/05 04:24:23;;;;;;;19.37;8.80;;;;;;;8.11;72.42;99167.35;125140;1102;103980;-80
2022/01/05 04:26:53;;;;;;;22.43;9.20;;;;;;;8.07;72.16;99165.50;125090;1102;103980;-80
2022/01/05 04:29:24;;;;;;;23.30;10.83;;;;;;;8.05;72.34;99159.36;125176;1102;104060;-80
2022/01/05 04:31:53;;;;;;;21.50;9.60;;;;;;;8.02;72.14;99159.29;125000;1103;104008;-80
2022/01/05 04:34:23;;;;;;;22.03;10.20;;;;;;;8.01;71.77;99167.96;124960;1102;103920;-80
2022/01/05 04:36:53;;;;;;;23.80;10.00;;;;;;;7.99;71.82;99162.70;125250;1102;103990;-81
2022/01/05 04:39:22;;;;;;;21.10;9.77;;;;;;;7.98;72.35;99160.05;125206;1102;104091;-81
2022/01/05 04:41:52;;;;;;;24.30;10.63;;;;;;;7.96;72.15;99149.56;125201;1102;103935;-81
2022/01/05 04:44:25;;;;;;;23.50;10.50;;;;;;;7.95;72.31;99160.88;125122;1102;103928;-81
2022/01/05 04:46:55;;;;;;;19.77;9.50;;;;;;;7.95;72.32;99166.10;125178;1102;104063;-80
2022/01/05 04:49:24;;;;;;;22.77;9.60;;;;;;;7.96;72.56;99177.42;125261;1102;103961;-81
2022/01/05 04:51:54;;;;;;;19.77;8.90;;;;;;;7.97;72.29;99179.20;125023;1102;104031;-82
2022/01/05 04:54:24;;;;;;;21.50;9.23;;;;;;;7.97;72.00;99187.04;125188;1102;103935;-81
2022/01/05 04:56:53;;;;;;;20.40;8.87;;;;;;;7.98;72.25;99186.17;125023;1102;103931;-80
2022/01/05 04:59:24;;;;;;;18.83;8.63;;;;;;;7.98;71.93;99183.56;125212;1102;103932;-79
2022/01/05 05:01:55;;;;;;;20.37;9.50;;;;;;;7.98;72.35;99196.62;125117;1102;103929;-82
2022/01/05 05:04:26;;;;;;;21.13;9.27;;;;;;;7.99;72.31;99187.95;125158;1102;103939;-81
2022/01/05 05:06:55;;;;;;;20.03;9.30;;;;;;;7.99;71.89;99188.82;124952;1102;105275;-81
2022/01/05 05:09:27;;;;;;;19.17;9.20;;;;;;;8.00;72.15;99187.98;125118;1102;103999;-81
2022/01/05 05:11:59;;;;;;;19.07;9.03;;;;;;;8.02;72.60;99193.25;125132;1102;104054;-82
2022/01/05 05:14:30;;;;;;;19.23;9.10;;;;;;;8.02;71.92;99203.70;125170;1102;103932;-82
2022/01/05 05:16:59;;;;;;;21.37;9.40;;;;;;;8.03;72.15;99208.09;124995;1105;104054;-82
2022/01/05 05:19:31;;;;;;;23.87;9.90;;;;;;;8.04;72.48;99208.13;124988;1102;104070;-82
2022/01/05 05:22:04;;;;;;;20.60;9.40;;;;;;;8.04;72.05;99202.00;125237;1102;104009;-83
2022/01/05 05:24:35;;;;;;;21.15;10.20;;;;;;;8.05;71.95;99203.78;125211;1102;104057;-82
2022/01/05 05:27:06;;;;;;;22.27;10.07;;;;;;;8.06;72.55;99210.78;125042;1102;104009;-83
2022/01/05 05:29:35;;;;;;;20.57;10.50;;;;;;;8.09;72.52;99197.80;125103;1102;104028;-81
2022/01/05 05:32:07;;;;;;;23.50;10.95;;;;;;;8.10;72.40;99207.38;125123;1102;103961;-81
2022/01/05 05:34:37;;;;;;;21.23;9.70;;;;;;;8.12;72.44;99210.94;125072;1102;103986;-82
2022/01/05 05:37:07;;;;;;;24.40;10.53;;;;;;;8.13;72.69;99202.23;124901;1102;103944;-81
2022/01/05 05:39:37;;;;;;;22.03;9.80;;;;;;;8.15;72.08;99212.72;125149;1102;103932;-81
2022/01/05 05:42:08;;;;;;;20.67;10.00;;;;;;;8.16;72.69;99222.34;125139;1102;104018;-81
2022/01/05 05:44:38;;;;;;;23.23;10.50;;;;;;;8.15;72.72;99224.08;125144;1102;103923;-81
2022/01/05 05:47:08;;;;;;;21.53;9.90;;;;;;;8.16;72.69;99223.21;124949;1102;104073;-81
2022/01/05 05:49:39;;;;;;;23.33;11.60;;;;;;;8.14;72.18;99219.69;125193;1102;103934;-82
2022/01/05 05:52:09;;;;;;;22.87;12.03;;;;;;;8.12;72.64;99224.00;125196;1102;103928;-82
2022/01/05 05:54:40;;;;;;;26.70;12.60;;;;;;;8.09;72.63;99221.31;125233;1102;104153;-82
2022/01/05 05:57:10;;;;;;;25.37;12.00;;;;;;;8.06;72.45;99222.11;125062;1102;101608;-82
2022/01/05 05:59:45;;;;;;;25.43;12.53;;;;;;;8.07;72.69;99236.95;125030;1102;105431;-82
2022/01/05 06:02:17;;;;;;;26.17;12.63;;;;;;;8.06;72.53;99248.23;125015;1102;103942;-82
2022/01/05 06:04:46;;;;;;;30.93;12.80;;;;;;;8.07;72.37;99251.72;125203;1102;103938;-83
2022/01/05 06:07:16;;;;;;;25.83;12.50;;;;;;;8.06;72.07;99253.45;125132;1102;104191;-82
2022/01/05 06:09:49;;;;;;;26.47;13.23;;;;;;;8.07;72.77;99259.55;125139;1102;103966;-82
2022/01/05 06:12:20;;;;;;;25.27;12.07;;;;;;;8.06;72.12;99265.64;125176;1102;104043;-82
2022/01/05 06:14:49;;;;;;;25.63;11.87;;;;;;;8.04;72.60;99268.22;125086;1102;104056;-82
2022/01/05 06:17:20;;;;;;;25.53;12.07;;;;;;;8.06;72.51;99270.88;125047;1101;103968;-82
2022/01/05 06:19:51;;;;;;;22.53;11.50;;;;;;;8.07;72.17;99281.36;125049;1102;104213;-80
2022/01/05 06:22:25;;;;;;;26.50;11.97;;;;;;;8.12;72.40;99277.96;125227;1102;103970;-80
2022/01/05 06:25:07;;;;;;;23.25;11.30;;;;;;;8.15;72.78;99288.49;124988;1102;104069;-80
2022/01/05 06:27:41;;;;;;;23.60;11.40;;;;;;;8.17;72.77;99287.70;125201;1102;103954;-81
2022/01/05 06:30:13;;;;;;;23.53;11.00;;;;;;;8.22;72.95;99298.27;124927;1102;104024;-82
2022/01/05 06:32:47;;;;;;;24.63;11.87;;;;;;;8.24;72.60;99292.25;125057;1102;103973;-80
2022/01/05 06:35:25;;;;;;;21.80;10.55;;;;;;;8.29;72.26;99292.37;125033;1102;103964;-79
2022/01/05 06:37:56;;;;;;;21.93;10.93;;;;;;;8.34;72.40;99293.36;124852;1102;104015;-78
2022/01/05 06:40:26;;;;;;;23.30;12.20;;;;;;;8.40;72.61;99285.67;124848;1103;104082;-79
2022/01/05 06:42:58;;;;;;;23.53;11.70;;;;;;;8.45;72.18;99277.98;124918;1102;103925;-79
2022/01/05 06:45:46;;;;;;;24.97;12.20;;;;;;;8.50;72.81;99271.13;124992;1102;104111;-80
2022/01/05 06:48:25;;;;;;;24.10;11.73;;;;;;;8.56;72.79;99273.02;125007;1102;104012;-80
2022/01/05 06:51:00;;;;;;;24.97;12.97;;;;;;;8.63;72.58;99281.05;124911;1103;104038;-80
2022/01/05 06:53:32;;;;;;;27.10;13.33;;;;;;;8.69;72.69;99275.05;124952;1102;103923;-79
2022/01/05 06:56:07;;;;;;;27.87;13.43;;;;;;;8.75;72.63;99283.05;124820;1103;104095;-78
2022/01/05 06:58:41;;;;;;;29.37;13.80;;;;;;;8.76;72.04;99276.11;124870;1105;104170;-80
2022/01/05 07:01:12;;;;;;;;;;;;;;;8.77;72.85;99272.62;125028;1102;103932;-80
2022/01/05 07:06:46;;;;;;;25.97;13.20;;;;;;;8.86;72.42;99290.27;124800;1102;104105;-80
2022/01/05 07:12:41;;;;;;;25.13;12.33;;;;;;;8.89;72.08;99274.65;125760;1102;102398;-81
2022/01/05 07:15:17;;;;;;;24.60;11.93;;;;;;;8.91;72.11;99268.61;124796;1102;105641;-81
2022/01/05 07:17:54;;;;;;;23.53;11.37;;;;;;;8.94;72.47;99273.01;125135;1102;105296;-84
2022/01/05 07:20:31;;;;;;;23.70;11.47;;;;;;;8.97;72.80;99270.46;124892;1102;104063;-82
2022/01/05 07:23:06;;;;;;;23.43;11.53;;;;;;;9.00;72.63;99271.41;125098;1102;103960;-80
2022/01/05 07:25:39;;;;;;;23.87;11.87;;;;;;;9.04;72.14;99269.77;124835;1102;102285;-80
2022/01/05 07:28:29;;;;;;;27.33;13.43;;;;;;;9.07;72.82;99282.91;124964;1102;103941;-81
2022/01/05 07:31:14;;;;;;;26.13;13.47;;;;;;;9.11;72.12;99276.87;124966;1105;103804;-80
2022/01/05 07:34:15;;;;;;;31.43;14.77;;;;;;;9.12;72.80;99273.42;124871;1105;103989;-82
2022/01/05 07:36:50;;;;;;;28.43;16.37;;;;;;;9.12;72.21;99268.19;125011;1102;104730;-82
2022/01/05 07:39:46;;;;;;;34.20;16.07;;;;;;;9.12;72.06;99280.40;125235;1102;104043;-82
2022/01/05 07:42:30;;;;;;;36.93;17.57;;;;;;;9.09;72.08;99277.71;125014;1102;104021;-82
2022/01/05 07:45:16;;;;;;;34.53;17.40;;;;;;;9.08;72.61;99275.94;124940;1102;103955;-82
2022/01/05 07:47:51;;;;;;;35.57;17.10;;;;;;;9.09;72.22;99283.82;124821;1104;103274;-82
2022/01/05 07:50:49;;;;;;;40.67;17.80;;;;;;;9.14;72.71;99287.41;124999;1101;104015;-84
2022/01/05 07:53:59;;;;;;;38.33;16.43;;;;;;;9.21;72.07;99287.55;124890;1102;103960;-82
2022/01/05 07:56:33;;;;;;;35.40;16.23;;;;;;;9.35;71.94;99291.37;124992;1102;103888;-81
2022/01/05 07:59:20;;;;;;;43.65;18.05;;;;;;;9.47;72.07;99281.16;124807;1102;104079;-81
2022/01/05 08:01:53;;;;;;;38.90;17.83;;;;;;;9.58;72.38;99277.84;124802;1102;103926;-82
2022/01/05 08:04:48;;;;;;;40.30;17.60;;;;;;;9.66;72.02;99285.02;124941;1105;101958;-81
2022/01/05 08:07:42;;;;;;;40.63;18.17;;;;;;;9.75;72.22;99278.19;124890;1106;104162;-83
2022/01/05 08:10:29;;;;;;;41.27;19.10;;;;;;;9.84;71.93;99275.75;124891;1102;104788;-80
2022/01/05 08:13:25;;;;;;;39.60;19.07;;;;;;;9.99;71.98;99277.78;124843;1102;102595;-81
2022/01/05 08:16:14;;;;;;;38.37;18.37;;;;;;;10.10;71.98;99284.09;125043;1102;103974;-82
2022/01/05 08:19:01;;;;;;;36.90;17.87;;;;;;;10.13;71.87;99286.77;124873;1102;103951;-81
2022/01/05 08:22:07;;;;;;;36.77;17.80;;;;;;;10.16;71.83;99288.54;125186;1102;103957;-82
2022/01/05 08:24:53;;;;;;;36.90;16.67;;;;;;;10.15;72.11;99287.67;124894;1102;103958;-82
2022/01/05 08:27:31;;;;;;;37.40;18.43;;;;;;;10.15;72.09;99286.80;125186;1102;104067;-83
2022/01/05 08:30:40;;;;;;;37.23;18.23;;;;;;;10.13;71.32;99297.26;124960;1105;103993;-82
2022/01/05 08:33:28;;;;;;;41.97;21.73;;;;;;;10.07;71.49;99292.77;124946;1103;104123;-83
2022/01/05 08:36:17;;;;;;;41.13;22.40;;;;;;;10.08;71.21;99281.45;125229;1102;104009;-83
2022/01/05 08:39:36;;;;;;;44.07;22.43;;;;;;;10.15;71.61;99278.94;124911;1102;103813;-80
2022/01/05 08:42:19;;;;;;;44.67;22.37;;;;;;;10.27;71.18;99281.77;125058;1102;104066;-81
2022/01/05 08:45:10;;;;;;;45.03;20.90;;;;;;;10.37;71.49;99288.95;125167;1102;103980;-81
2022/01/05 08:48:17;;;;;;;38.17;19.63;;;;;;;10.51;71.45;99281.32;125104;1102;103952;-81
2022/01/05 08:50:51;;;;;;;33.17;16.03;;;;;;;10.64;71.57;99273.66;124984;1102;103925;-81
2022/01/05 08:53:35;;;;;;;35.30;17.67;;;;;;;10.77;71.36;99270.37;124933;1105;104077;-82
2022/01/05 08:56:28;;;;;;;;;;;;;;;;;;;;;
2022/01/05 09:02:36;;;;;;;21.25;9.75;;;;;;;11.13;70.86;99275.26;124934;1103;104051;-82
2022/01/05 09:05:13;;;;;;;20.10;8.60;;;;;;;11.21;70.67;99271.87;124906;1102;104025;-80
2022/01/05 09:07:58;;;;;;;19.40;8.60;;;;;;;11.32;70.48;99260.62;124918;1103;103970;-80
2022/01/05 09:10:34;;;;;;;19.47;9.10;;;;;;;11.37;70.28;99263.30;124951;1102;104164;-80
2022/01/05 09:13:09;;;;;;;16.60;8.00;;;;;;;11.51;70.26;99260.85;125082;1102;103919;-80
2022/01/05 09:15:48;;;;;;;18.87;8.77;;;;;;;11.62;70.23;99266.23;125133;1106;104086;-80
2022/01/05 09:19:19;;;;;;;;;;;;;;;;;;;;;
2022/01/05 09:25:18;;;;;;;18.47;8.93;;;;;;;11.63;69.82;99252.25;124592;1105;104053;-80
2022/01/05 09:28:08;;;;;;;17.13;8.40;;;;;;;11.59;69.69;99251.30;124613;1109;103958;-82
2022/01/05 09:31:19;;;;;;;;;;;;;;;;;;;;;
2022/01/05 09:34:21;;;;;;;19.80;8.70;;;;;;;11.80;69.37;99239.30;124879;1106;117154;-81
2022/01/05 09:36:58;;;;;;;18.33;8.60;;;;;;;11.90;69.52;99240.27;124677;1105;104149;-81
2022/01/05 09:42:39;;;;;;;18.27;8.03;;;;;;;12.11;69.15;99237.01;124847;1105;103952;-81
2022/01/05 09:45:20;;;;;;;16.97;8.10;;;;;;;12.19;69.33;99244.08;124976;1105;104091;-80
2022/01/05 09:48:25;;;;;;;19.87;8.30;;;;;;;12.27;68.99;99246.78;124944;1105;104223;-81
2022/01/05 09:54:18;;;;;;;16.60;8.20;;;;;;;12.39;69.05;99238.13;124944;1105;104465;-81
2022/01/05 09:57:10;;;;;;;17.15;8.25;;;;;;;12.44;68.63;99241.66;124982;1102;103989;-81
2022/01/05 10:00:06;;;;;;;19.15;8.95;;;;;;;12.49;68.86;99241.70;124977;1103;104033;-81
2022/01/05 10:03:02;;;;;;;17.17;7.67;;;;;;;12.50;69.10;99244.34;125029;1105;104009;-81
2022/01/05 10:05:49;;;;;;;17.03;7.37;;;;;;;12.49;68.64;99242.57;125167;1102;101572;-82
2022/01/05 10:08:22;;;;;;;17.80;7.43;;;;;;;12.48;68.51;99238.20;125127;1102;103989;-80
2022/01/05 10:10:55;;;;;;;;;;;;;;;12.45;67.86;99222.39;124960;1102;104095;-79
2022/01/05 10:13:34;;;;;;;14.20;6.93;;;;;;;12.43;68.54;99203.06;124905;1102;103958;-80
2022/01/05 10:16:14;;;;;;;18.90;8.13;;;;;;;12.43;68.65;99221.47;124896;1102;103964;-80
2022/01/05 10:18:56;;;;;;;16.93;7.83;;;;;;;12.45;68.08;99222.39;124858;1103;104054;-80
2022/01/05 10:21:47;;;;;;;17.30;7.87;;;;;;;12.49;67.92;99213.63;125022;1102;104069;-81
2022/01/05 10:24:44;;;;;;;16.67;7.77;;;;;;;12.50;68.08;99214.53;125012;1102;103999;-80
2022/01/05 10:27:29;;;;;;;19.13;8.23;;;;;;;12.48;67.78;99205.72;124926;1103;104034;-81
2022/01/05 10:30:37;;;;;;;16.50;7.73;;;;;;;12.45;67.71;99200.44;124872;1102;103984;-81
2022/01/05 10:33:14;;;;;;;15.97;7.90;;;;;;;12.43;67.94;99200.42;124845;1102;103964;-80
2022/01/05 10:36:09;;;;;;;18.17;8.00;;;;;;;12.41;67.61;99199.55;124950;1102;103995;-80
2022/01/05 10:39:18;;;;;;;20.20;7.90;;;;;;;12.40;66.84;99197.77;124984;1102;104079;-80
2022/01/05 10:42:17;;;;;;;19.10;8.40;;;;;;;12.36;67.62;99198.64;125025;1102;104056;-79
2022/01/05 10:45:01;;;;;;;17.40;8.13;;;;;;;12.32;67.37;99196.84;124904;1102;104035;-80
2022/01/05 10:47:43;;;;;;;15.83;7.80;;;;;;;12.29;67.15;99189.80;125031;1102;102252;-79
2022/01/05 10:50:27;;;;;;;17.43;8.40;;;;;;;12.28;67.41;99189.78;124885;1102;102002;-80
2022/01/05 10:53:19;;;;;;;;;;;;;;;;;;;;;
2022/01/05 10:56:31;;;;;;;18.27;8.97;;;;;;;12.22;67.00;99183.62;125044;1102;103921;-81
2022/01/05 10:59:09;;;;;;;18.73;8.63;;;;;;;12.19;66.90;99177.47;125010;1105;105481;-80
2022/01/05 11:01:48;;;;;;;18.50;8.37;;;;;;;12.19;66.58;99178.33;125033;1106;102757;-80
2022/01/05 11:04:27;;;;;;;17.37;7.93;;;;;;;12.22;67.17;99185.37;125169;1105;103928;-79
2022/01/05 11:07:23;;;;;;;18.97;8.70;;;;;;;12.23;66.92;99182.77;124883;1105;104128;-80
2022/01/05 11:10:11;;;;;;;17.17;7.67;;;;;;;12.25;66.97;99173.98;124994;1106;103933;-81
2022/01/05 11:12:47;;;;;;;17.30;7.90;;;;;;;12.26;66.87;99165.23;125023;1105;102078;-82
2022/01/05 11:15:43;;;;;;;18.03;8.90;;;;;;;12.29;66.57;99162.63;124890;1105;104264;-82
2022/01/05 11:18:30;;;;;;;19.23;8.97;;;;;;;12.33;66.86;99159.16;125071;1106;102620;-81
2022/01/05 11:21:05;;;;;;;18.00;8.43;;;;;;;12.36;66.88;99165.31;125095;1105;102167;-82
2022/01/05 11:23:47;;;;;;;20.10;8.60;;;;;;;12.39;66.85;99165.34;125589;1106;102100;-80
2022/01/05 11:26:40;;;;;;;18.87;8.40;;;;;;;12.41;66.95;99154.83;125561;1105;104033;-80
2022/01/05 11:29:20;;;;;;;20.63;9.37;;;;;;;12.40;66.47;99146.06;125745;1105;102113;-80
2022/01/05 11:32:27;;;;;;;18.60;8.33;;;;;;;12.39;66.50;99146.92;125894;1102;104011;-81
2022/01/05 11:35:09;;;;;;;22.23;9.03;;;;;;;12.40;66.86;99145.16;125538;1106;103958;-81
2022/01/05 11:37:50;;;;;;;21.03;9.50;;;;;;;12.41;66.69;99139.91;125486;1105;102765;-80
2022/01/05 11:40:49;;;;;;;22.10;9.43;;;;;;;12.43;66.75;99145.19;125299;1105;104197;-80
2022/01/05 11:43:43;;;;;;;21.50;10.13;;;;;;;12.46;66.63;99144.33;125789;1105;103897;-81
2022/01/05 11:46:38;;;;;;;21.17;9.67;;;;;;;12.51;65.99;99146.13;125548;1105;103967;-81
2022/01/05 11:49:36;;;;;;;24.10;9.65;;;;;;;12.56;66.50;99147.03;125152;1105;102916;-80
2022/01/05 11:53:01;;;;;;;19.13;8.73;;;;;;;12.61;66.32;99138.30;125170;1105;103941;-79
2022/01/05 12:04:09;;;;;;;;;;;;;;;;;;;;;
2022/01/05 12:07:21;;;;;;;19.15;7.67;;;;;;;12.92;65.87;99121.77;124816;1106;108871;-78
2022/01/05 12:10:24;;;;;;;16.35;7.60;;;;;;;12.99;65.56;99105.99;124958;1105;104313;-79
2022/01/05 12:13:08;;;;;;;16.17;7.77;;;;;;;13.08;65.70;99116.56;124969;1105;104802;-79
2022/01/05 12:16:11;;;;;;;;;;;;;;;13.16;65.67;99120.09;124921;1105;104182;-80
2022/01/05 12:19:18;;;;;;;16.13;7.80;;;;;;;13.25;65.77;99128.02;124918;1105;104297;-81
2022/01/05 12:22:03;;;;;;;17.20;7.50;;;;;;;13.32;65.75;99123.64;124868;1105;104091;-80
2022/01/05 12:28:35;;;;;;;16.73;7.33;;;;;;;13.35;65.52;99112.27;124773;1106;120528;-80
2022/01/05 12:32:13;;;;;;;14.17;7.23;;;;;;;13.35;64.98;99109.64;124847;1105;104514;-82
2022/01/05 12:35:28;;;;;;;17.25;8.45;;;;;;;13.37;65.86;99113.14;124993;1105;103101;-81
2022/01/05 12:39:01;;;;;;;16.67;7.10;;;;;;;13.37;65.12;99115.78;124899;1105;112354;-80
2022/01/05 12:45:02;;;;;;;16.07;6.73;;;;;;;13.31;64.86;99122.77;125077;1102;104615;-79